sensor_id;sensor_type;location;lat;lon;timestamp;P1;durP1;ratioP1;P2;durP2;ratioP2
3811;SDS011;1921;49.368;11.068;2023-06-22T00:01:16;73.87;;;56.43;;
3811;SDS011;1921;49.368;11.068;2023-06-22T00:03:42;75.20;;;57.30;;
3811;SDS011;1921;49.368;11.068;2023-06-22T00:06:08;74.90;;;57.70;;
3811;SDS011;1921;49.368;11.068;2023-06-22T00:08:34;76.47;;;57.50;;
3811;SDS011;1921;49.368;11.068;2023-06-22T00:10:59;78.20;;;58.93;;
3811;SDS011;1921;49.368;11.068;2023-06-22T00:13:25;77.93;;;58.03;;
3811;SDS011;1921;49.368;11.068;2023-06-22T00:15:51;78.60;;;57.13;;
3811;SDS011;1921;49.368;11.068;2023-06-22T00:18:17;73.43;;;57.20;;
3811;SDS011;1921;49.368;11.068;2023-06-22T00:20:43;77.10;;;57.20;;
3811;SDS011;1921;49.368;11.068;2023-06-22T00:23:10;72.00;;;56.33;;
3811;SDS011;1921;49.368;11.068;2023-06-22T00:25:39;78.83;;;56.67;;
3811;SDS011;1921;49.368;11.068;2023-06-22T00:28:05;76.10;;;56.93;;
3811;SDS011;1921;49.368;11.068;2023-06-22T00:30:32;73.63;;;55.90;;
3811;SDS011;1921;49.368;11.068;2023-06-22T00:32:58;77.93;;;56.40;;
3811;SDS011;1921;49.368;11.068;2023-06-22T00:35:25;76.27;;;57.20;;
3811;SDS011;1921;49.368;11.068;2023-06-22T00:37:55;74.63;;;56.40;;
3811;SDS011;1921;49.368;11.068;2023-06-22T00:40:29;73.77;;;56.77;;
3811;SDS011;1921;49.368;11.068;2023-06-22T00:42:56;79.73;;;57.63;;
3811;SDS011;1921;49.368;11.068;2023-06-22T00:45:22;70.47;;;54.93;;
3811;SDS011;1921;49.368;11.068;2023-06-22T00:47:50;72.60;;;56.57;;
3811;SDS011;1921;49.368;11.068;2023-06-22T00:50:22;71.23;;;56.00;;
3811;SDS011;1921;49.368;11.068;2023-06-22T00:52:54;76.93;;;57.00;;
3811;SDS011;1921;49.368;11.068;2023-06-22T00:55:22;76.47;;;56.80;;
3811;SDS011;1921;49.368;11.068;2023-06-22T00:57:48;77.63;;;57.30;;
3811;SDS011;1921;49.368;11.068;2023-06-22T01:00:15;77.20;;;56.90;;
3811;SDS011;1921;49.368;11.068;2023-06-22T01:02:44;75.80;;;57.40;;
3811;SDS011;1921;49.368;11.068;2023-06-22T01:05:11;73.40;;;56.63;;
3811;SDS011;1921;49.368;11.068;2023-06-22T01:07:40;77.30;;;56.90;;
3811;SDS011;1921;49.368;11.068;2023-06-22T01:12:48;77.63;;;57.87;;
3811;SDS011;1921;49.368;11.068;2023-06-22T01:15:25;76.10;;;57.67;;
3811;SDS011;1921;49.368;11.068;2023-06-22T01:18:04;76.07;;;57.97;;
3811;SDS011;1921;49.368;11.068;2023-06-22T01:20:33;79.83;;;57.10;;
3811;SDS011;1921;49.368;11.068;2023-06-22T01:25:56;73.17;;;56.90;;
3811;SDS011;1921;49.368;11.068;2023-06-22T01:29:04;79.27;;;57.93;;
3811;SDS011;1921;49.368;11.068;2023-06-22T01:31:32;88.37;;;59.27;;
3811;SDS011;1921;49.368;11.068;2023-06-22T01:34:01;79.10;;;58.30;;
3811;SDS011;1921;49.368;11.068;2023-06-22T01:36:29;76.60;;;58.10;;
3811;SDS011;1921;49.368;11.068;2023-06-22T01:38:57;76.77;;;57.93;;
3811;SDS011;1921;49.368;11.068;2023-06-22T01:41:25;79.23;;;59.37;;
3811;SDS011;1921;49.368;11.068;2023-06-22T01:43:52;73.93;;;57.40;;
3811;SDS011;1921;49.368;11.068;2023-06-22T01:46:20;78.17;;;57.90;;
3811;SDS011;1921;49.368;11.068;2023-06-22T01:48:47;77.27;;;57.20;;
3811;SDS011;1921;49.368;11.068;2023-06-22T01:51:14;80.20;;;57.27;;
3811;SDS011;1921;49.368;11.068;2023-06-22T01:53:40;71.80;;;56.90;;
3811;SDS011;1921;49.368;11.068;2023-06-22T01:56:06;77.80;;;58.97;;
3811;SDS011;1921;49.368;11.068;2023-06-22T01:58:32;73.30;;;57.50;;
3811;SDS011;1921;49.368;11.068;2023-06-22T02:01:11;80.47;;;58.00;;
3811;SDS011;1921;49.368;11.068;2023-06-22T02:03:43;75.17;;;57.03;;
3811;SDS011;1921;49.368;11.068;2023-06-22T02:06:17;76.00;;;57.50;;
3811;SDS011;1921;49.368;11.068;2023-06-22T02:08:57;80.10;;;58.03;;
3811;SDS011;1921;49.368;11.068;2023-06-22T02:11:26;77.87;;;59.67;;
3811;SDS011;1921;49.368;11.068;2023-06-22T02:13:53;79.20;;;58.70;;
3811;SDS011;1921;49.368;11.068;2023-06-22T02:16:22;76.47;;;57.97;;
3811;SDS011;1921;49.368;11.068;2023-06-22T02:18:48;76.70;;;58.00;;
3811;SDS011;1921;49.368;11.068;2023-06-22T02:21:16;78.03;;;57.93;;
3811;SDS011;1921;49.368;11.068;2023-06-22T02:23:42;78.20;;;57.87;;
3811;SDS011;1921;49.368;11.068;2023-06-22T02:26:08;77.83;;;57.20;;
3811;SDS011;1921;49.368;11.068;2023-06-22T02:28:34;80.47;;;58.83;;
3811;SDS011;1921;49.368;11.068;2023-06-22T02:31:00;75.67;;;57.63;;
3811;SDS011;1921;49.368;11.068;2023-06-22T02:33:26;79.67;;;58.80;;
3811;SDS011;1921;49.368;11.068;2023-06-22T02:35:54;78.43;;;59.20;;
3811;SDS011;1921;49.368;11.068;2023-06-22T02:38:20;81.57;;;57.57;;
3811;SDS011;1921;49.368;11.068;2023-06-22T02:40:46;80.20;;;60.13;;
3811;SDS011;1921;49.368;11.068;2023-06-22T02:43:12;79.37;;;58.97;;
3811;SDS011;1921;49.368;11.068;2023-06-22T02:45:38;74.67;;;57.70;;
3811;SDS011;1921;49.368;11.068;2023-06-22T02:48:04;78.20;;;60.47;;
3811;SDS011;1921;49.368;11.068;2023-06-22T02:50:30;77.30;;;60.30;;
3811;SDS011;1921;49.368;11.068;2023-06-22T02:52:56;83.30;;;61.20;;
3811;SDS011;1921;49.368;11.068;2023-06-22T02:55:21;81.23;;;59.50;;
3811;SDS011;1921;49.368;11.068;2023-06-22T02:57:48;86.77;;;59.60;;
3811;SDS011;1921;49.368;11.068;2023-06-22T03:00:17;83.20;;;62.10;;
3811;SDS011;1921;49.368;11.068;2023-06-22T03:02:45;82.70;;;60.43;;
3811;SDS011;1921;49.368;11.068;2023-06-22T03:05:12;93.10;;;64.17;;
3811;SDS011;1921;49.368;11.068;2023-06-22T03:07:40;87.17;;;62.33;;
3811;SDS011;1921;49.368;11.068;2023-06-22T03:10:07;85.20;;;60.80;;
3811;SDS011;1921;49.368;11.068;2023-06-22T03:12:38;84.10;;;61.20;;
3811;SDS011;1921;49.368;11.068;2023-06-22T03:15:08;82.37;;;59.87;;
3811;SDS011;1921;49.368;11.068;2023-06-22T03:17:36;88.80;;;61.10;;
3811;SDS011;1921;49.368;11.068;2023-06-22T03:20:04;82.40;;;61.30;;
3811;SDS011;1921;49.368;11.068;2023-06-22T03:22:35;91.30;;;60.00;;
3811;SDS011;1921;49.368;11.068;2023-06-22T03:25:06;81.23;;;59.30;;
3811;SDS011;1921;49.368;11.068;2023-06-22T03:27:40;83.30;;;62.10;;
3811;SDS011;1921;49.368;11.068;2023-06-22T03:30:09;82.83;;;59.90;;
3811;SDS011;1921;49.368;11.068;2023-06-22T03:32:36;84.63;;;60.10;;
3811;SDS011;1921;49.368;11.068;2023-06-22T03:35:02;83.13;;;60.10;;
3811;SDS011;1921;49.368;11.068;2023-06-22T03:37:28;82.67;;;61.00;;
3811;SDS011;1921;49.368;11.068;2023-06-22T03:39:54;84.57;;;62.10;;
3811;SDS011;1921;49.368;11.068;2023-06-22T03:42:20;82.60;;;60.27;;
3811;SDS011;1921;49.368;11.068;2023-06-22T03:44:46;83.97;;;60.23;;
3811;SDS011;1921;49.368;11.068;2023-06-22T03:47:12;85.30;;;61.40;;
3811;SDS011;1921;49.368;11.068;2023-06-22T03:49:38;79.13;;;59.37;;
3811;SDS011;1921;49.368;11.068;2023-06-22T03:52:04;82.90;;;60.17;;
3811;SDS011;1921;49.368;11.068;2023-06-22T03:54:30;80.47;;;58.47;;
3811;SDS011;1921;49.368;11.068;2023-06-22T03:56:56;81.47;;;58.90;;
3811;SDS011;1921;49.368;11.068;2023-06-22T03:59:23;77.17;;;57.03;;
3811;SDS011;1921;49.368;11.068;2023-06-22T04:01:51;75.80;;;56.40;;
3811;SDS011;1921;49.368;11.068;2023-06-22T04:04:17;80.70;;;57.10;;
3811;SDS011;1921;49.368;11.068;2023-06-22T04:06:43;78.23;;;57.53;;
3811;SDS011;1921;49.368;11.068;2023-06-22T04:09:09;76.27;;;57.97;;
3811;SDS011;1921;49.368;11.068;2023-06-22T04:11:35;78.53;;;57.77;;
3811;SDS011;1921;49.368;11.068;2023-06-22T04:14:00;77.30;;;57.33;;
3811;SDS011;1921;49.368;11.068;2023-06-22T04:16:26;74.03;;;56.87;;
3811;SDS011;1921;49.368;11.068;2023-06-22T04:18:52;77.53;;;57.83;;
3811;SDS011;1921;49.368;11.068;2023-06-22T04:21:18;75.90;;;57.43;;
3811;SDS011;1921;49.368;11.068;2023-06-22T04:23:44;81.90;;;58.33;;
3811;SDS011;1921;49.368;11.068;2023-06-22T04:26:11;80.37;;;57.77;;
3811;SDS011;1921;49.368;11.068;2023-06-22T04:28:39;78.10;;;57.50;;
3811;SDS011;1921;49.368;11.068;2023-06-22T04:31:05;78.33;;;58.50;;
3811;SDS011;1921;49.368;11.068;2023-06-22T04:33:31;76.17;;;57.07;;
3811;SDS011;1921;49.368;11.068;2023-06-22T04:35:57;75.33;;;57.33;;
3811;SDS011;1921;49.368;11.068;2023-06-22T04:38:26;78.97;;;56.60;;
3811;SDS011;1921;49.368;11.068;2023-06-22T04:40:52;75.77;;;56.40;;
3811;SDS011;1921;49.368;11.068;2023-06-22T04:43:19;80.10;;;57.50;;
3811;SDS011;1921;49.368;11.068;2023-06-22T04:45:45;78.40;;;58.40;;
3811;SDS011;1921;49.368;11.068;2023-06-22T04:48:11;77.53;;;57.10;;
3811;SDS011;1921;49.368;11.068;2023-06-22T04:50:41;77.60;;;58.37;;
3811;SDS011;1921;49.368;11.068;2023-06-22T04:53:07;74.70;;;56.47;;
3811;SDS011;1921;49.368;11.068;2023-06-22T04:55:34;79.00;;;57.33;;
3811;SDS011;1921;49.368;11.068;2023-06-22T04:58:02;80.90;;;58.00;;
3811;SDS011;1921;49.368;11.068;2023-06-22T05:00:29;76.40;;;56.57;;
3811;SDS011;1921;49.368;11.068;2023-06-22T05:02:56;80.40;;;57.73;;
3811;SDS011;1921;49.368;11.068;2023-06-22T05:05:23;79.20;;;57.50;;
3811;SDS011;1921;49.368;11.068;2023-06-22T05:07:50;81.77;;;58.73;;
3811;SDS011;1921;49.368;11.068;2023-06-22T05:10:18;79.27;;;58.73;;
3811;SDS011;1921;49.368;11.068;2023-06-22T05:12:45;79.87;;;57.60;;
3811;SDS011;1921;49.368;11.068;2023-06-22T05:15:11;88.10;;;58.97;;
3811;SDS011;1921;49.368;11.068;2023-06-22T05:17:37;80.60;;;58.33;;
3811;SDS011;1921;49.368;11.068;2023-06-22T05:20:08;79.50;;;58.20;;
3811;SDS011;1921;49.368;11.068;2023-06-22T05:22:40;79.97;;;58.00;;
3811;SDS011;1921;49.368;11.068;2023-06-22T05:25:14;78.03;;;57.10;;
3811;SDS011;1921;49.368;11.068;2023-06-22T05:27:39;84.33;;;58.33;;
3811;SDS011;1921;49.368;11.068;2023-06-22T05:30:06;80.90;;;58.10;;
3811;SDS011;1921;49.368;11.068;2023-06-22T05:32:33;80.53;;;59.27;;
3811;SDS011;1921;49.368;11.068;2023-06-22T05:34:59;80.40;;;58.23;;
3811;SDS011;1921;49.368;11.068;2023-06-22T05:37:25;80.10;;;58.90;;
3811;SDS011;1921;49.368;11.068;2023-06-22T05:39:51;82.83;;;59.83;;
3811;SDS011;1921;49.368;11.068;2023-06-22T05:42:17;80.30;;;58.57;;
3811;SDS011;1921;49.368;11.068;2023-06-22T05:44:43;80.33;;;58.10;;
3811;SDS011;1921;49.368;11.068;2023-06-22T05:47:08;78.60;;;57.17;;
3811;SDS011;1921;49.368;11.068;2023-06-22T05:49:34;77.10;;;57.70;;
3811;SDS011;1921;49.368;11.068;2023-06-22T05:52:00;79.13;;;57.93;;
3811;SDS011;1921;49.368;11.068;2023-06-22T05:54:29;77.70;;;58.00;;
3811;SDS011;1921;49.368;11.068;2023-06-22T05:56:55;80.90;;;58.50;;
3811;SDS011;1921;49.368;11.068;2023-06-22T05:59:20;78.30;;;58.40;;
3811;SDS011;1921;49.368;11.068;2023-06-22T06:01:46;78.27;;;57.97;;
3811;SDS011;1921;49.368;11.068;2023-06-22T06:04:18;83.27;;;58.67;;
3811;SDS011;1921;49.368;11.068;2023-06-22T06:06:44;79.83;;;58.27;;
3811;SDS011;1921;49.368;11.068;2023-06-22T06:09:11;79.90;;;57.30;;
3811;SDS011;1921;49.368;11.068;2023-06-22T06:11:38;76.73;;;55.97;;
3811;SDS011;1921;49.368;11.068;2023-06-22T06:14:04;79.77;;;57.97;;
3811;SDS011;1921;49.368;11.068;2023-06-22T06:16:30;82.80;;;57.60;;
3811;SDS011;1921;49.368;11.068;2023-06-22T06:18:56;78.70;;;57.03;;
3811;SDS011;1921;49.368;11.068;2023-06-22T06:21:23;81.23;;;57.90;;
3811;SDS011;1921;49.368;11.068;2023-06-22T06:23:49;76.90;;;57.30;;
3811;SDS011;1921;49.368;11.068;2023-06-22T06:26:15;80.30;;;58.40;;
3811;SDS011;1921;49.368;11.068;2023-06-22T06:28:42;80.63;;;58.63;;
3811;SDS011;1921;49.368;11.068;2023-06-22T06:31:08;79.00;;;57.77;;
3811;SDS011;1921;49.368;11.068;2023-06-22T06:33:34;77.90;;;55.93;;
3811;SDS011;1921;49.368;11.068;2023-06-22T06:36:01;77.50;;;56.90;;
3811;SDS011;1921;49.368;11.068;2023-06-22T06:38:28;78.83;;;57.70;;
3811;SDS011;1921;49.368;11.068;2023-06-22T06:40:58;75.27;;;56.17;;
3811;SDS011;1921;49.368;11.068;2023-06-22T06:43:24;79.80;;;57.43;;
3811;SDS011;1921;49.368;11.068;2023-06-22T06:45:50;83.33;;;58.17;;
3811;SDS011;1921;49.368;11.068;2023-06-22T06:48:16;80.70;;;58.03;;
3811;SDS011;1921;49.368;11.068;2023-06-22T06:50:42;82.80;;;58.70;;
3811;SDS011;1921;49.368;11.068;2023-06-22T06:53:11;79.50;;;58.40;;
3811;SDS011;1921;49.368;11.068;2023-06-22T06:55:36;79.63;;;57.60;;
3811;SDS011;1921;49.368;11.068;2023-06-22T06:58:02;83.03;;;58.83;;
3811;SDS011;1921;49.368;11.068;2023-06-22T07:00:32;81.10;;;58.80;;
3811;SDS011;1921;49.368;11.068;2023-06-22T07:02:58;77.53;;;57.53;;
3811;SDS011;1921;49.368;11.068;2023-06-22T07:05:24;78.37;;;57.80;;
3811;SDS011;1921;49.368;11.068;2023-06-22T07:07:49;79.00;;;56.47;;
3811;SDS011;1921;49.368;11.068;2023-06-22T07:10:15;78.83;;;59.27;;
3811;SDS011;1921;49.368;11.068;2023-06-22T07:12:41;77.83;;;58.20;;
3811;SDS011;1921;49.368;11.068;2023-06-22T07:15:07;78.97;;;57.77;;
3811;SDS011;1921;49.368;11.068;2023-06-22T07:17:35;76.37;;;56.43;;
3811;SDS011;1921;49.368;11.068;2023-06-22T07:20:02;79.90;;;57.50;;
3811;SDS011;1921;49.368;11.068;2023-06-22T07:22:33;74.10;;;54.57;;
3811;SDS011;1921;49.368;11.068;2023-06-22T07:24:59;81.60;;;57.70;;
3811;SDS011;1921;49.368;11.068;2023-06-22T07:27:26;77.73;;;57.30;;
3811;SDS011;1921;49.368;11.068;2023-06-22T07:29:52;76.87;;;57.50;;
3811;SDS011;1921;49.368;11.068;2023-06-22T07:32:17;76.80;;;57.30;;
3811;SDS011;1921;49.368;11.068;2023-06-22T07:34:44;75.90;;;57.00;;
3811;SDS011;1921;49.368;11.068;2023-06-22T07:37:11;80.07;;;58.40;;
3811;SDS011;1921;49.368;11.068;2023-06-22T07:39:37;81.77;;;57.97;;
3811;SDS011;1921;49.368;11.068;2023-06-22T07:42:03;76.20;;;56.20;;
3811;SDS011;1921;49.368;11.068;2023-06-22T07:44:30;76.57;;;56.30;;
3811;SDS011;1921;49.368;11.068;2023-06-22T07:46:56;76.93;;;57.27;;
3811;SDS011;1921;49.368;11.068;2023-06-22T07:49:21;78.70;;;57.80;;
3811;SDS011;1921;49.368;11.068;2023-06-22T07:51:47;79.70;;;57.43;;
3811;SDS011;1921;49.368;11.068;2023-06-22T07:54:13;78.20;;;57.20;;
3811;SDS011;1921;49.368;11.068;2023-06-22T07:56:40;77.93;;;57.33;;
3811;SDS011;1921;49.368;11.068;2023-06-22T07:59:06;74.63;;;54.90;;
3811;SDS011;1921;49.368;11.068;2023-06-22T08:01:33;77.17;;;57.13;;
3811;SDS011;1921;49.368;11.068;2023-06-22T08:03:59;79.23;;;58.20;;
3811;SDS011;1921;49.368;11.068;2023-06-22T08:06:24;78.57;;;58.00;;
3811;SDS011;1921;49.368;11.068;2023-06-22T08:08:50;79.30;;;57.78;;
3811;SDS011;1921;49.368;11.068;2023-06-22T08:11:18;82.88;;;57.92;;
3811;SDS011;1921;49.368;11.068;2023-06-22T08:13:44;79.07;;;57.17;;
3811;SDS011;1921;49.368;11.068;2023-06-22T08:16:10;84.10;;;58.35;;
3811;SDS011;1921;49.368;11.068;2023-06-22T08:18:36;75.25;;;56.20;;
3811;SDS011;1921;49.368;11.068;2023-06-22T08:21:02;82.78;;;58.15;;
3811;SDS011;1921;49.368;11.068;2023-06-22T08:23:28;81.80;;;58.33;;
3811;SDS011;1921;49.368;11.068;2023-06-22T08:25:54;78.00;;;57.20;;
3811;SDS011;1921;49.368;11.068;2023-06-22T08:28:19;78.00;;;56.85;;
3811;SDS011;1921;49.368;11.068;2023-06-22T08:30:45;78.72;;;57.53;;
3811;SDS011;1921;49.368;11.068;2023-06-22T08:33:11;77.45;;;57.45;;
3811;SDS011;1921;49.368;11.068;2023-06-22T08:35:37;87.25;;;57.42;;
3811;SDS011;1921;49.368;11.068;2023-06-22T08:38:03;80.03;;;56.50;;
3811;SDS011;1921;49.368;11.068;2023-06-22T08:40:30;79.53;;;57.60;;
3811;SDS011;1921;49.368;11.068;2023-06-22T08:42:56;77.53;;;57.50;;
3811;SDS011;1921;49.368;11.068;2023-06-22T08:45:21;79.70;;;56.97;;
3811;SDS011;1921;49.368;11.068;2023-06-22T08:47:47;78.18;;;57.33;;
3811;SDS011;1921;49.368;11.068;2023-06-22T08:50:13;79.88;;;57.55;;
3811;SDS011;1921;49.368;11.068;2023-06-22T08:52:39;80.63;;;57.47;;
3811;SDS011;1921;49.368;11.068;2023-06-22T08:55:08;79.10;;;57.83;;
3811;SDS011;1921;49.368;11.068;2023-06-22T08:57:35;79.70;;;58.25;;
3811;SDS011;1921;49.368;11.068;2023-06-22T09:00:06;80.68;;;58.28;;
3811;SDS011;1921;49.368;11.068;2023-06-22T09:02:44;80.28;;;58.22;;
3811;SDS011;1921;49.368;11.068;2023-06-22T09:05:15;81.22;;;58.50;;
3811;SDS011;1921;49.368;11.068;2023-06-22T09:07:41;81.30;;;58.20;;
3811;SDS011;1921;49.368;11.068;2023-06-22T09:10:07;78.95;;;58.15;;
3811;SDS011;1921;49.368;11.068;2023-06-22T09:12:33;80.13;;;58.30;;
3811;SDS011;1921;49.368;11.068;2023-06-22T09:15:02;82.30;;;58.25;;
3811;SDS011;1921;49.368;11.068;2023-06-22T09:17:28;82.50;;;58.05;;
3811;SDS011;1921;49.368;11.068;2023-06-22T09:19:54;80.47;;;58.20;;
3811;SDS011;1921;49.368;11.068;2023-06-22T09:22:20;81.65;;;58.78;;
3811;SDS011;1921;49.368;11.068;2023-06-22T09:24:48;81.57;;;58.45;;
3811;SDS011;1921;49.368;11.068;2023-06-22T09:27:14;80.60;;;58.38;;
3811;SDS011;1921;49.368;11.068;2023-06-22T09:32:11;95.28;;;60.38;;
3811;SDS011;1921;49.368;11.068;2023-06-22T09:34:37;85.38;;;58.35;;
3811;SDS011;1921;49.368;11.068;2023-06-22T09:37:03;83.13;;;57.85;;
3811;SDS011;1921;49.368;11.068;2023-06-22T09:39:30;81.38;;;57.58;;
3811;SDS011;1921;49.368;11.068;2023-06-22T09:41:57;78.03;;;57.58;;
3811;SDS011;1921;49.368;11.068;2023-06-22T09:44:25;78.03;;;57.80;;
3811;SDS011;1921;49.368;11.068;2023-06-22T09:46:50;78.70;;;58.25;;
3811;SDS011;1921;49.368;11.068;2023-06-22T09:49:25;76.30;;;56.33;;
3811;SDS011;1921;49.368;11.068;2023-06-22T09:51:51;80.13;;;57.50;;
3811;SDS011;1921;49.368;11.068;2023-06-22T09:54:17;78.45;;;57.50;;
3811;SDS011;1921;49.368;11.068;2023-06-22T09:56:43;78.07;;;57.47;;
3811;SDS011;1921;49.368;11.068;2023-06-22T09:59:08;79.00;;;57.70;;
3811;SDS011;1921;49.368;11.068;2023-06-22T10:01:34;82.82;;;58.17;;
3811;SDS011;1921;49.368;11.068;2023-06-22T10:04:01;83.10;;;57.85;;
3811;SDS011;1921;49.368;11.068;2023-06-22T10:06:27;81.28;;;57.38;;
3811;SDS011;1921;49.368;11.068;2023-06-22T10:08:53;79.95;;;57.90;;
3811;SDS011;1921;49.368;11.068;2023-06-22T10:11:19;77.68;;;56.90;;
3811;SDS011;1921;49.368;11.068;2023-06-22T10:13:44;80.35;;;57.83;;
3811;SDS011;1921;49.368;11.068;2023-06-22T10:16:11;84.65;;;58.05;;
3811;SDS011;1921;49.368;11.068;2023-06-22T10:18:37;82.93;;;57.33;;
3811;SDS011;1921;49.368;11.068;2023-06-22T10:21:03;77.72;;;58.33;;
3811;SDS011;1921;49.368;11.068;2023-06-22T10:23:28;76.70;;;57.85;;
3811;SDS011;1921;49.368;11.068;2023-06-22T10:25:54;82.95;;;57.78;;
3811;SDS011;1921;49.368;11.068;2023-06-22T10:28:23;81.68;;;58.08;;
3811;SDS011;1921;49.368;11.068;2023-06-22T10:30:48;80.38;;;56.83;;
3811;SDS011;1921;49.368;11.068;2023-06-22T10:33:14;82.30;;;57.60;;
3811;SDS011;1921;49.368;11.068;2023-06-22T10:35:40;78.10;;;57.38;;
3811;SDS011;1921;49.368;11.068;2023-06-22T10:38:05;80.30;;;57.83;;
3811;SDS011;1921;49.368;11.068;2023-06-22T10:40:32;83.88;;;58.58;;
3811;SDS011;1921;49.368;11.068;2023-06-22T10:42:59;82.45;;;59.22;;
3811;SDS011;1921;49.368;11.068;2023-06-22T10:45:24;83.05;;;58.67;;
3811;SDS011;1921;49.368;11.068;2023-06-22T10:47:50;85.38;;;58.20;;
3811;SDS011;1921;49.368;11.068;2023-06-22T10:50:16;79.00;;;57.55;;
3811;SDS011;1921;49.368;11.068;2023-06-22T10:52:43;85.30;;;59.17;;
3811;SDS011;1921;49.368;11.068;2023-06-22T10:55:09;81.72;;;58.05;;
3811;SDS011;1921;49.368;11.068;2023-06-22T10:57:35;78.93;;;58.22;;
3811;SDS011;1921;49.368;11.068;2023-06-22T11:00:02;79.25;;;58.45;;
3811;SDS011;1921;49.368;11.068;2023-06-22T11:02:32;80.18;;;58.03;;
3811;SDS011;1921;49.368;11.068;2023-06-22T11:04:58;81.30;;;58.30;;
3811;SDS011;1921;49.368;11.068;2023-06-22T11:07:25;81.25;;;58.88;;
3811;SDS011;1921;49.368;11.068;2023-06-22T11:09:54;84.70;;;59.65;;
3811;SDS011;1921;49.368;11.068;2023-06-22T11:12:19;82.13;;;58.42;;
3811;SDS011;1921;49.368;11.068;2023-06-22T11:14:46;82.63;;;59.28;;
3811;SDS011;1921;49.368;11.068;2023-06-22T11:17:18;77.90;;;56.95;;
3811;SDS011;1921;49.368;11.068;2023-06-22T11:19:44;81.80;;;57.60;;
3811;SDS011;1921;49.368;11.068;2023-06-22T11:22:10;81.13;;;59.13;;
3811;SDS011;1921;49.368;11.068;2023-06-22T11:24:35;76.15;;;57.03;;
3811;SDS011;1921;49.368;11.068;2023-06-22T11:27:01;82.82;;;57.85;;
3811;SDS011;1921;49.368;11.068;2023-06-22T11:29:27;81.22;;;58.40;;
3811;SDS011;1921;49.368;11.068;2023-06-22T11:31:53;84.32;;;59.33;;
3811;SDS011;1921;49.368;11.068;2023-06-22T11:34:18;81.75;;;59.28;;
3811;SDS011;1921;49.368;11.068;2023-06-22T11:36:44;81.15;;;58.30;;
3811;SDS011;1921;49.368;11.068;2023-06-22T11:39:10;76.53;;;57.08;;
3811;SDS011;1921;49.368;11.068;2023-06-22T11:41:36;81.88;;;58.35;;
3811;SDS011;1921;49.368;11.068;2023-06-22T11:44:03;81.63;;;58.13;;
3811;SDS011;1921;49.368;11.068;2023-06-22T11:46:29;82.32;;;58.65;;
3811;SDS011;1921;49.368;11.068;2023-06-22T11:48:56;85.20;;;58.45;;
3811;SDS011;1921;49.368;11.068;2023-06-22T11:51:22;89.03;;;58.55;;
3811;SDS011;1921;49.368;11.068;2023-06-22T11:53:48;82.00;;;57.95;;
3811;SDS011;1921;49.368;11.068;2023-06-22T11:56:14;77.70;;;57.45;;
3811;SDS011;1921;49.368;11.068;2023-06-22T11:58:39;83.47;;;58.55;;
3811;SDS011;1921;49.368;11.068;2023-06-22T12:01:05;79.75;;;58.47;;
3811;SDS011;1921;49.368;11.068;2023-06-22T12:03:31;82.93;;;59.65;;
3811;SDS011;1921;49.368;11.068;2023-06-22T12:05:57;82.60;;;59.50;;
3811;SDS011;1921;49.368;11.068;2023-06-22T12:08:24;87.15;;;60.13;;
3811;SDS011;1921;49.368;11.068;2023-06-22T12:10:50;79.32;;;58.65;;
3811;SDS011;1921;49.368;11.068;2023-06-22T12:13:16;82.20;;;58.38;;
3811;SDS011;1921;49.368;11.068;2023-06-22T12:15:41;83.93;;;59.33;;
3811;SDS011;1921;49.368;11.068;2023-06-22T12:18:07;88.60;;;59.45;;
3811;SDS011;1921;49.368;11.068;2023-06-22T12:20:34;82.30;;;59.55;;
3811;SDS011;1921;49.368;11.068;2023-06-22T12:22:59;85.22;;;59.33;;
3811;SDS011;1921;49.368;11.068;2023-06-22T12:25:26;80.25;;;58.25;;
3811;SDS011;1921;49.368;11.068;2023-06-22T12:27:55;82.93;;;58.33;;
3811;SDS011;1921;49.368;11.068;2023-06-22T12:30:20;84.97;;;59.60;;
3811;SDS011;1921;49.368;11.068;2023-06-22T12:32:46;83.63;;;59.70;;
3811;SDS011;1921;49.368;11.068;2023-06-22T12:35:12;80.32;;;58.85;;
3811;SDS011;1921;49.368;11.068;2023-06-22T12:37:39;89.25;;;59.88;;
3811;SDS011;1921;49.368;11.068;2023-06-22T12:40:06;83.40;;;59.75;;
3811;SDS011;1921;49.368;11.068;2023-06-22T12:42:33;86.30;;;59.67;;
3811;SDS011;1921;49.368;11.068;2023-06-22T12:44:58;80.00;;;59.28;;
3811;SDS011;1921;49.368;11.068;2023-06-22T12:47:24;91.55;;;60.38;;
3811;SDS011;1921;49.368;11.068;2023-06-22T12:49:50;86.25;;;59.75;;
3811;SDS011;1921;49.368;11.068;2023-06-22T12:52:15;86.10;;;59.90;;
3811;SDS011;1921;49.368;11.068;2023-06-22T12:54:41;87.43;;;60.60;;
3811;SDS011;1921;49.368;11.068;2023-06-22T12:57:07;84.90;;;59.45;;
3811;SDS011;1921;49.368;11.068;2023-06-22T12:59:33;90.38;;;60.20;;
3811;SDS011;1921;49.368;11.068;2023-06-22T13:01:59;86.22;;;60.08;;
3811;SDS011;1921;49.368;11.068;2023-06-22T13:04:24;87.85;;;59.80;;
3811;SDS011;1921;49.368;11.068;2023-06-22T13:06:50;80.63;;;59.38;;
3811;SDS011;1921;49.368;11.068;2023-06-22T13:09:17;85.47;;;59.85;;
3811;SDS011;1921;49.368;11.068;2023-06-22T13:11:44;81.47;;;59.50;;
3811;SDS011;1921;49.368;11.068;2023-06-22T13:14:10;97.88;;;61.42;;
3811;SDS011;1921;49.368;11.068;2023-06-22T13:16:35;88.50;;;60.40;;
3811;SDS011;1921;49.368;11.068;2023-06-22T13:19:01;84.68;;;60.03;;
3811;SDS011;1921;49.368;11.068;2023-06-22T13:21:27;90.85;;;61.30;;
3811;SDS011;1921;49.368;11.068;2023-06-22T13:23:53;86.10;;;61.13;;
3811;SDS011;1921;49.368;11.068;2023-06-22T13:26:19;85.97;;;60.33;;
3811;SDS011;1921;49.368;11.068;2023-06-22T13:28:46;83.35;;;60.65;;
3811;SDS011;1921;49.368;11.068;2023-06-22T13:31:11;93.07;;;61.20;;
3811;SDS011;1921;49.368;11.068;2023-06-22T13:33:38;86.68;;;60.53;;
3811;SDS011;1921;49.368;11.068;2023-06-22T13:36:05;82.20;;;59.85;;
3811;SDS011;1921;49.368;11.068;2023-06-22T13:38:32;80.78;;;59.63;;
3811;SDS011;1921;49.368;11.068;2023-06-22T13:41:03;85.50;;;59.88;;
3811;SDS011;1921;49.368;11.068;2023-06-22T13:43:29;83.80;;;59.90;;
3811;SDS011;1921;49.368;11.068;2023-06-22T13:45:55;88.03;;;60.63;;
3811;SDS011;1921;49.368;11.068;2023-06-22T13:48:21;91.40;;;60.35;;
3811;SDS011;1921;49.368;11.068;2023-06-22T13:50:48;86.05;;;59.75;;
3811;SDS011;1921;49.368;11.068;2023-06-22T13:53:14;88.85;;;60.83;;
3811;SDS011;1921;49.368;11.068;2023-06-22T13:55:39;90.93;;;60.05;;
3811;SDS011;1921;49.368;11.068;2023-06-22T13:58:05;87.25;;;60.70;;
3811;SDS011;1921;49.368;11.068;2023-06-22T14:00:31;90.70;;;60.25;;
3811;SDS011;1921;49.368;11.068;2023-06-22T14:02:57;94.70;;;60.47;;
3811;SDS011;1921;49.368;11.068;2023-06-22T14:05:23;85.03;;;60.65;;
3811;SDS011;1921;49.368;11.068;2023-06-22T14:07:48;82.95;;;59.88;;
3811;SDS011;1921;49.368;11.068;2023-06-22T14:10:14;82.45;;;59.95;;
3811;SDS011;1921;49.368;11.068;2023-06-22T14:12:40;84.75;;;60.10;;
3811;SDS011;1921;49.368;11.068;2023-06-22T14:15:06;84.95;;;61.15;;
3811;SDS011;1921;49.368;11.068;2023-06-22T14:17:32;88.15;;;60.72;;
3811;SDS011;1921;49.368;11.068;2023-06-22T14:19:57;86.47;;;60.83;;
3811;SDS011;1921;49.368;11.068;2023-06-22T14:22:23;93.75;;;60.45;;
3811;SDS011;1921;49.368;11.068;2023-06-22T14:24:49;81.03;;;59.90;;
3811;SDS011;1921;49.368;11.068;2023-06-22T14:27:15;82.45;;;60.58;;
3811;SDS011;1921;49.368;11.068;2023-06-22T14:29:41;89.15;;;61.10;;
3811;SDS011;1921;49.368;11.068;2023-06-22T14:32:07;85.28;;;59.72;;
3811;SDS011;1921;49.368;11.068;2023-06-22T14:34:34;84.18;;;60.35;;
3811;SDS011;1921;49.368;11.068;2023-06-22T14:37:04;87.93;;;60.60;;
3811;SDS011;1921;49.368;11.068;2023-06-22T14:39:34;85.35;;;59.80;;